createdAt,value
2018-12-17T00:00:50.375Z,936.16
2018-12-17T00:01:50.341Z,936.17
2018-12-17T00:02:50.391Z,936.17
2018-12-17T00:03:50.347Z,936.17
2018-12-17T00:04:50.333Z,936.18
2018-12-17T00:05:50.334Z,936.19
2018-12-17T00:06:50.346Z,936.25
2018-12-17T00:07:50.335Z,936.27
2018-12-17T00:08:50.326Z,936.30
2018-12-17T00:09:50.304Z,936.34
2018-12-17T00:10:50.316Z,936.36
2018-12-17T00:11:50.358Z,936.32
2018-12-17T00:12:50.330Z,936.35
2018-12-17T00:13:50.315Z,936.34
2018-12-17T00:14:50.302Z,936.32
2018-12-17T00:15:50.337Z,936.32
2018-12-17T00:16:50.275Z,936.32
2018-12-17T00:17:50.299Z,936.30
2018-12-17T00:18:50.266Z,936.29
2018-12-17T00:19:50.286Z,936.26
2018-12-17T00:20:50.263Z,936.22
2018-12-17T00:21:50.267Z,936.26
2018-12-17T00:22:50.269Z,936.28
2018-12-17T00:23:50.256Z,936.33
2018-12-17T00:24:50.248Z,936.31
2018-12-17T00:25:50.233Z,936.30
2018-12-17T00:26:50.227Z,936.30
2018-12-17T00:27:50.237Z,936.31
2018-12-17T00:28:50.218Z,936.40
2018-12-17T00:29:50.222Z,936.44
2018-12-17T00:30:50.221Z,936.44
2018-12-17T00:31:50.216Z,936.47
2018-12-17T00:32:50.215Z,936.50
2018-12-17T00:33:50.222Z,936.47
2018-12-17T00:34:50.216Z,936.49
2018-12-17T00:35:50.191Z,936.50
2018-12-17T00:36:50.183Z,936.52
2018-12-17T00:37:50.177Z,936.51
2018-12-17T00:38:50.173Z,936.46
2018-12-17T00:39:50.174Z,936.42
2018-12-17T00:40:50.242Z,936.41
2018-12-17T00:41:50.160Z,936.39
2018-12-17T00:42:50.146Z,936.35
2018-12-17T00:43:50.164Z,936.29
2018-12-17T00:44:50.166Z,936.31
2018-12-17T00:45:50.163Z,936.29
2018-12-17T00:46:50.160Z,936.30
2018-12-17T00:47:50.156Z,936.29
2018-12-17T00:48:50.140Z,936.34
2018-12-17T00:49:50.134Z,936.36
2018-12-17T00:50:50.176Z,936.39
2018-12-17T00:51:50.117Z,936.44
2018-12-17T00:52:50.127Z,936.41
2018-12-17T00:53:50.091Z,936.45
2018-12-17T00:54:50.127Z,936.46
2018-12-17T00:55:50.119Z,936.50
2018-12-17T00:56:50.115Z,936.46
2018-12-17T00:57:50.097Z,936.47
2018-12-17T00:58:50.106Z,936.45
2018-12-17T00:59:50.088Z,936.47
2018-12-17T01:00:50.086Z,936.44
2018-12-17T01:01:50.076Z,936.48
2018-12-17T01:02:50.073Z,936.47
2018-12-17T01:03:50.070Z,936.48
2018-12-17T01:04:50.058Z,936.48
2018-12-17T01:05:50.096Z,936.51
2018-12-17T01:06:50.080Z,936.53
2018-12-17T01:07:50.046Z,936.46
2018-12-17T01:08:50.071Z,936.52
2018-12-17T01:09:50.054Z,936.52
2018-12-17T01:10:50.011Z,936.53
2018-12-17T01:11:50.047Z,936.53
2018-12-17T01:12:50.028Z,936.53
2018-12-17T01:13:50.019Z,936.52
2018-12-17T01:14:50.012Z,936.53
2018-12-17T01:15:50.015Z,936.53
2018-12-17T01:16:50.001Z,936.54
2018-12-17T01:17:49.993Z,936.53
2018-12-17T01:18:49.973Z,936.52
2018-12-17T01:19:49.995Z,936.51
2018-12-17T01:20:49.982Z,936.51
2018-12-17T01:21:50.011Z,936.47
2018-12-17T01:22:49.980Z,936.47
2018-12-17T01:23:50.018Z,936.46
2018-12-17T01:24:49.978Z,936.41
2018-12-17T01:25:49.967Z,936.45
2018-12-17T01:26:49.952Z,936.47
2018-12-17T01:27:49.965Z,936.46
2018-12-17T01:28:49.948Z,936.48
2018-12-17T01:29:49.960Z,936.48
2018-12-17T01:30:49.947Z,936.50
2018-12-17T01:31:49.926Z,936.52
2018-12-17T01:32:49.949Z,936.52
2018-12-17T01:33:49.997Z,936.49
2018-12-17T01:34:49.931Z,936.49
2018-12-17T01:35:49.935Z,936.52
2018-12-17T01:36:49.930Z,936.51
2018-12-17T01:37:49.908Z,936.53
2018-12-17T01:38:49.896Z,936.52
2018-12-17T01:39:49.904Z,936.52
2018-12-17T01:40:49.913Z,936.59
2018-12-17T01:41:49.896Z,936.52
2018-12-17T01:42:49.864Z,936.53
2018-12-17T01:43:49.890Z,936.50
2018-12-17T01:44:49.879Z,936.51
2018-12-17T01:45:49.863Z,936.48
2018-12-17T01:46:49.866Z,936.48
2018-12-17T01:47:49.884Z,936.47
2018-12-17T01:48:49.843Z,936.50
2018-12-17T01:49:49.863Z,936.45
2018-12-17T01:50:49.893Z,936.50
2018-12-17T01:51:49.887Z,936.52
2018-12-17T01:52:49.939Z,936.47
2018-12-17T01:53:49.822Z,936.48
2018-12-17T01:54:49.848Z,936.48
2018-12-17T01:55:49.845Z,936.51
2018-12-17T01:56:49.863Z,936.49
2018-12-17T01:57:49.826Z,936.49
2018-12-17T01:58:49.820Z,936.51
2018-12-17T01:59:49.825Z,936.49
2018-12-17T02:00:49.826Z,936.46
2018-12-17T02:01:49.857Z,936.50
2018-12-17T02:02:49.812Z,936.47
2018-12-17T02:03:49.787Z,936.43
2018-12-17T02:04:49.791Z,936.42
2018-12-17T02:05:49.770Z,936.40
2018-12-17T02:06:49.775Z,936.37
2018-12-17T02:07:49.774Z,936.33
2018-12-17T02:08:49.812Z,936.31
2018-12-17T02:09:49.760Z,936.30
2018-12-17T02:10:49.776Z,936.27
2018-12-17T02:11:49.770Z,936.28
2018-12-17T02:12:49.780Z,936.28
2018-12-17T02:13:49.798Z,936.32
2018-12-17T02:14:49.771Z,936.27
2018-12-17T02:15:49.744Z,936.26
2018-12-17T02:16:49.722Z,936.26
2018-12-17T02:17:49.717Z,936.23
2018-12-17T02:18:49.723Z,936.23
2018-12-17T02:19:49.723Z,936.26
2018-12-17T02:20:49.721Z,936.27
2018-12-17T02:21:49.702Z,936.23
2018-12-17T02:22:49.687Z,936.24
2018-12-17T02:23:49.683Z,936.20
2018-12-17T02:24:49.704Z,936.22
2018-12-17T02:25:49.678Z,936.17
2018-12-17T02:26:49.677Z,936.17
2018-12-17T02:27:49.673Z,936.17
2018-12-17T02:28:49.674Z,936.17
2018-12-17T02:29:49.667Z,936.13
2018-12-17T02:30:49.669Z,936.12
2018-12-17T02:31:49.670Z,936.10
2018-12-17T02:32:49.639Z,936.09
2018-12-17T02:33:49.701Z,936.09
2018-12-17T02:34:49.642Z,936.06
2018-12-17T02:35:49.629Z,936.12
2018-12-17T02:36:49.635Z,936.09
2018-12-17T02:37:49.633Z,936.06
2018-12-17T02:38:49.664Z,936.07
2018-12-17T02:39:49.627Z,936.07
2018-12-17T02:40:49.605Z,936.04
2018-12-17T02:41:49.609Z,936.03
2018-12-17T02:42:49.630Z,936.01
2018-12-17T02:43:49.596Z,936.01
2018-12-17T02:44:49.586Z,935.99
2018-12-17T02:45:49.607Z,935.97
2018-12-17T02:46:49.595Z,935.98
2018-12-17T02:47:49.578Z,935.97
2018-12-17T02:48:49.569Z,935.99
2018-12-17T02:49:49.567Z,935.97
2018-12-17T02:50:49.578Z,935.98
2018-12-17T02:51:49.562Z,935.97
2018-12-17T02:52:49.546Z,936.01
2018-12-17T02:53:49.541Z,936.00
2018-12-17T02:54:49.541Z,935.97
2018-12-17T02:55:49.537Z,936.00
2018-12-17T02:56:49.544Z,935.96
2018-12-17T02:57:49.551Z,935.91
2018-12-17T02:58:49.522Z,935.89
2018-12-17T02:59:49.558Z,935.87
2018-12-17T03:00:49.514Z,935.82
2018-12-17T03:01:49.521Z,935.78
2018-12-17T03:02:49.503Z,935.80
2018-12-17T03:03:49.514Z,935.76
2018-12-17T03:04:49.495Z,935.74
2018-12-17T03:05:49.518Z,935.76
2018-12-17T03:06:49.485Z,935.77
2018-12-17T03:07:49.462Z,935.74
2018-12-17T03:08:49.521Z,935.75
2018-12-17T03:09:49.470Z,935.71
2018-12-17T03:10:49.493Z,935.71
2018-12-17T03:11:49.459Z,935.72
2018-12-17T03:12:49.466Z,935.69
2018-12-17T03:13:49.448Z,935.68
2018-12-17T03:14:49.441Z,935.64
2018-12-17T03:15:49.447Z,935.63
2018-12-17T03:16:49.419Z,935.63
2018-12-17T03:17:49.438Z,935.62
2018-12-17T03:18:49.426Z,935.56
2018-12-17T03:19:49.414Z,935.60
2018-12-17T03:20:49.413Z,935.58
2018-12-17T03:21:49.402Z,935.56
2018-12-17T03:22:49.403Z,935.52
2018-12-17T03:23:49.409Z,935.52
2018-12-17T03:24:49.378Z,935.51
2018-12-17T03:25:49.423Z,935.47
2018-12-17T03:26:49.391Z,935.49
2018-12-17T03:27:49.388Z,935.45
2018-12-17T03:28:51.852Z,935.48
2018-12-17T03:29:49.354Z,935.38
2018-12-17T03:30:49.362Z,935.40
2018-12-17T03:31:49.354Z,935.37
2018-12-17T03:32:49.333Z,935.38
2018-12-17T03:33:49.336Z,935.34
2018-12-17T03:34:49.335Z,935.31
2018-12-17T03:35:49.344Z,935.28
2018-12-17T03:36:49.327Z,935.24
2018-12-17T03:37:49.334Z,935.25
2018-12-17T03:38:49.322Z,935.17
2018-12-17T03:39:49.323Z,935.19
2018-12-17T03:40:49.310Z,935.17
2018-12-17T03:41:49.300Z,935.15
2018-12-17T03:42:49.293Z,935.10
2018-12-17T03:43:49.277Z,935.06
2018-12-17T03:44:49.269Z,935.07
2018-12-17T03:45:49.270Z,935.08
2018-12-17T03:46:49.269Z,935.08
2018-12-17T03:47:49.293Z,935.09
2018-12-17T03:48:49.246Z,935.11
2018-12-17T03:49:49.242Z,935.16
2018-12-17T03:50:49.289Z,935.17
2018-12-17T03:51:49.253Z,935.14
2018-12-17T03:52:49.250Z,935.18
2018-12-17T03:53:49.252Z,935.16
2018-12-17T03:54:49.213Z,935.18
2018-12-17T03:55:49.220Z,935.19
2018-12-17T03:56:49.218Z,935.20
2018-12-17T03:57:49.210Z,935.21
2018-12-17T03:58:49.203Z,935.22
2018-12-17T03:59:49.215Z,935.17
2018-12-17T04:00:49.198Z,935.20
2018-12-17T04:01:49.192Z,935.20
2018-12-17T04:02:49.160Z,935.23
2018-12-17T04:03:49.158Z,935.21
2018-12-17T04:04:49.173Z,935.20
2018-12-17T04:05:49.177Z,935.24
2018-12-17T04:06:49.154Z,935.22
2018-12-17T04:07:49.165Z,935.22
2018-12-17T04:08:49.159Z,935.22
2018-12-17T04:09:49.185Z,935.21
2018-12-17T04:10:49.163Z,935.18
2018-12-17T04:11:49.124Z,935.17
2018-12-17T04:12:49.108Z,935.15
2018-12-17T04:13:49.136Z,935.14
2018-12-17T04:14:49.118Z,935.12
2018-12-17T04:15:49.166Z,935.09
2018-12-17T04:16:49.106Z,935.08
2018-12-17T04:17:49.088Z,935.05
2018-12-17T04:18:49.070Z,935.05
2018-12-17T04:19:49.089Z,935.04
2018-12-17T04:20:49.102Z,935.00
2018-12-17T04:21:49.078Z,934.99
2018-12-17T04:22:49.044Z,934.96
2018-12-17T04:23:49.065Z,934.95
2018-12-17T04:24:49.050Z,934.97
2018-12-17T04:25:49.079Z,934.96
2018-12-17T04:26:49.045Z,934.94
2018-12-17T04:27:49.041Z,934.98
2018-12-17T04:28:49.046Z,934.98
2018-12-17T04:29:49.033Z,934.99
2018-12-17T04:30:49.014Z,935.00
2018-12-17T04:31:49.014Z,935.00
2018-12-17T04:32:49.014Z,934.96
2018-12-17T04:33:49.006Z,934.97
2018-12-17T04:34:49.013Z,934.97
2018-12-17T04:35:49.240Z,934.97
2018-12-17T04:36:48.986Z,934.97
2018-12-17T04:37:48.980Z,934.94
2018-12-17T04:38:50.623Z,934.92
2018-12-17T04:39:48.970Z,934.94
2018-12-17T04:40:48.978Z,934.94
2018-12-17T04:41:48.958Z,934.87
2018-12-17T04:42:48.958Z,934.86
2018-12-17T04:43:48.946Z,934.85
2018-12-17T04:44:48.942Z,934.83
2018-12-17T04:45:48.928Z,934.82
2018-12-17T04:46:48.935Z,934.83
2018-12-17T04:47:48.924Z,934.79
2018-12-17T04:48:48.905Z,934.78
2018-12-17T04:49:48.918Z,934.78
2018-12-17T04:50:48.892Z,934.74
2018-12-17T04:51:48.917Z,934.71
2018-12-17T04:52:48.880Z,934.70
2018-12-17T04:53:48.889Z,934.71
2018-12-17T04:54:48.875Z,934.69
2018-12-17T04:55:48.889Z,934.69
2018-12-17T04:56:48.875Z,934.70
2018-12-17T04:57:48.907Z,934.70
2018-12-17T04:58:48.858Z,934.61
2018-12-17T04:59:48.850Z,934.61
2018-12-17T05:00:48.861Z,934.63
2018-12-17T05:01:48.840Z,934.58
2018-12-17T05:02:48.828Z,934.59
2018-12-17T05:03:48.869Z,934.60
2018-12-17T05:04:48.848Z,934.55
2018-12-17T05:05:48.802Z,934.59
2018-12-17T05:06:48.850Z,934.58
2018-12-17T05:07:48.818Z,934.59
2018-12-17T05:08:48.781Z,934.58
2018-12-17T05:09:48.799Z,934.59
2018-12-17T05:10:48.771Z,934.63
2018-12-17T05:11:48.818Z,934.60
2018-12-17T05:12:48.783Z,934.65
2018-12-17T05:13:48.776Z,934.62
2018-12-17T05:14:48.803Z,934.60
2018-12-17T05:15:48.747Z,934.59
2018-12-17T05:16:48.749Z,934.59
2018-12-17T05:17:48.743Z,934.58
2018-12-17T05:18:48.752Z,934.60
2018-12-17T05:19:48.718Z,934.58
2018-12-17T05:20:48.725Z,934.56
2018-12-17T05:21:48.767Z,934.57
2018-12-17T05:22:49.056Z,934.54
2018-12-17T05:23:48.695Z,934.53
2018-12-17T05:24:48.735Z,934.52
2018-12-17T05:25:48.694Z,934.51
2018-12-17T05:26:48.690Z,934.51
2018-12-17T05:27:48.674Z,934.48
2018-12-17T05:28:48.682Z,934.46
2018-12-17T05:29:48.666Z,934.46
2018-12-17T05:30:48.683Z,934.42
2018-12-17T05:31:48.640Z,934.44
2018-12-17T05:32:48.643Z,934.42
2018-12-17T05:33:48.963Z,934.43
2018-12-17T05:34:48.650Z,934.42
2018-12-17T05:35:48.629Z,934.39
2018-12-17T05:36:48.622Z,934.41
2018-12-17T05:37:48.634Z,934.41
2018-12-17T05:38:48.661Z,934.46
2018-12-17T05:39:48.618Z,934.45
2018-12-17T05:40:48.604Z,934.43
2018-12-17T05:41:48.600Z,934.45
2018-12-17T05:42:48.579Z,934.48
2018-12-17T05:43:48.557Z,934.52
2018-12-17T05:44:48.563Z,934.51
2018-12-17T05:45:48.613Z,934.53
2018-12-17T05:46:48.546Z,934.55
2018-12-17T05:47:48.604Z,934.58
2018-12-17T05:48:48.546Z,934.57
2018-12-17T05:49:48.560Z,934.58
2018-12-17T05:50:48.548Z,934.58
2018-12-17T05:51:48.521Z,934.61
2018-12-17T05:52:48.531Z,934.55
2018-12-17T05:53:48.516Z,934.56
2018-12-17T05:54:48.563Z,934.57
2018-12-17T05:55:48.511Z,934.54
2018-12-17T05:56:48.502Z,934.50
2018-12-17T05:57:48.500Z,934.49
2018-12-17T05:58:48.534Z,934.47
2018-12-17T05:59:48.787Z,934.46
2018-12-17T06:00:48.490Z,934.47
2018-12-17T06:01:48.504Z,934.49
2018-12-17T06:02:48.464Z,934.46
2018-12-17T06:03:48.474Z,934.45
2018-12-17T06:04:48.457Z,934.45
2018-12-17T06:05:48.456Z,934.42
2018-12-17T06:06:48.467Z,934.42
2018-12-17T06:07:48.438Z,934.41
2018-12-17T06:08:48.431Z,934.45
2018-12-17T06:09:48.412Z,934.41
2018-12-17T06:10:48.718Z,934.37
2018-12-17T06:11:48.426Z,934.37
2018-12-17T06:12:48.403Z,934.37
2018-12-17T06:13:48.404Z,934.35
2018-12-17T06:14:48.390Z,934.32
2018-12-17T06:15:48.367Z,934.32
2018-12-17T06:16:48.377Z,934.32
2018-12-17T06:17:49.877Z,934.34
2018-12-17T06:18:48.373Z,934.36
2018-12-17T06:19:48.357Z,934.40
2018-12-17T06:20:48.363Z,934.42
2018-12-17T06:21:48.349Z,934.40
2018-12-17T06:22:48.355Z,934.42
2018-12-17T06:23:48.336Z,934.39
2018-12-17T06:24:48.307Z,934.38
2018-12-17T06:25:48.319Z,934.40
2018-12-17T06:26:48.311Z,934.39
2018-12-17T06:27:48.322Z,934.36
2018-12-17T06:28:48.342Z,934.34
2018-12-17T06:29:48.316Z,934.30
2018-12-17T06:30:48.341Z,934.30
2018-12-17T06:31:48.289Z,934.31
2018-12-17T06:32:48.286Z,934.29
2018-12-17T06:33:48.272Z,934.28
2018-12-17T06:34:48.260Z,934.29
2018-12-17T06:35:48.271Z,934.28
2018-12-17T06:36:48.255Z,934.27
2018-12-17T06:37:48.236Z,934.28
2018-12-17T06:38:48.229Z,934.31
2018-12-17T06:39:48.231Z,934.30
2018-12-17T06:40:48.235Z,934.26
2018-12-17T06:41:48.234Z,934.27
2018-12-17T06:42:48.243Z,934.31
2018-12-17T06:43:48.250Z,934.30
2018-12-17T06:44:48.256Z,934.30
2018-12-17T06:45:48.255Z,934.27
2018-12-17T06:46:48.188Z,934.29
2018-12-17T06:47:48.188Z,934.28
2018-12-17T06:48:48.181Z,934.28
2018-12-17T06:49:48.174Z,934.30
2018-12-17T06:50:48.178Z,934.31
2018-12-17T06:51:48.164Z,934.31
2018-12-17T06:53:48.196Z,934.32
2018-12-17T06:54:54.588Z,934.33
2018-12-17T06:55:48.183Z,934.38
2018-12-17T06:56:48.134Z,934.39
2018-12-17T06:57:48.131Z,934.42
2018-12-17T06:58:48.121Z,934.41
2018-12-17T06:59:48.131Z,934.39
2018-12-17T07:00:48.114Z,934.38
2018-12-17T07:01:48.088Z,934.38
2018-12-17T07:02:48.099Z,934.33
2018-12-17T07:03:48.087Z,934.32
2018-12-17T07:04:48.083Z,934.32
2018-12-17T07:05:48.081Z,934.29
2018-12-17T07:06:48.063Z,934.28
2018-12-17T07:07:48.063Z,934.27
2018-12-17T07:08:48.071Z,934.26
2018-12-17T07:09:48.061Z,934.24
2018-12-17T07:10:48.149Z,934.25
2018-12-17T07:11:48.025Z,934.26
2018-12-17T07:12:48.329Z,934.28
2018-12-17T07:13:48.093Z,934.29
2018-12-17T07:14:48.018Z,934.25
2018-12-17T07:15:48.045Z,934.28
2018-12-17T07:16:48.004Z,934.34
2018-12-17T07:17:48.022Z,934.33
2018-12-17T07:18:48.004Z,934.34
2018-12-17T07:19:47.988Z,934.39
2018-12-17T07:20:48.000Z,934.43
2018-12-17T07:21:47.993Z,934.42
2018-12-17T07:22:47.997Z,934.38
2018-12-17T07:23:47.993Z,934.42
2018-12-17T07:24:47.986Z,934.41
2018-12-17T07:25:47.980Z,934.44
2018-12-17T07:26:47.947Z,934.41
2018-12-17T07:27:47.957Z,934.50
2018-12-17T07:28:47.956Z,934.42
2018-12-17T07:29:49.946Z,934.41
2018-12-17T07:30:47.922Z,934.43
2018-12-17T07:31:47.926Z,934.41
2018-12-17T07:32:47.947Z,934.40
2018-12-17T07:33:47.921Z,934.38
2018-12-17T07:34:47.908Z,934.38
2018-12-17T07:35:47.912Z,934.38
2018-12-17T07:36:47.910Z,934.37
2018-12-17T07:37:47.892Z,934.34
2018-12-17T07:38:48.154Z,934.35
2018-12-17T07:39:47.888Z,934.34
2018-12-17T07:40:47.897Z,934.27
2018-12-17T07:41:47.890Z,934.29
2018-12-17T07:42:47.859Z,934.25
2018-12-17T07:43:47.867Z,934.26
2018-12-17T07:44:47.860Z,934.20
2018-12-17T07:45:47.847Z,934.20
2018-12-17T07:46:47.841Z,934.17
2018-12-17T07:47:47.844Z,934.20
2018-12-17T07:48:47.846Z,934.26
2018-12-17T07:49:47.826Z,934.24
2018-12-17T07:50:47.810Z,934.28
2018-12-17T07:51:47.826Z,934.33
2018-12-17T07:52:47.816Z,934.35
2018-12-17T07:53:47.835Z,934.40
2018-12-17T07:54:48.133Z,934.42
2018-12-17T07:55:47.805Z,934.43
2018-12-17T07:56:47.787Z,934.42
2018-12-17T07:57:47.781Z,934.46
2018-12-17T07:58:47.769Z,934.45
2018-12-17T07:59:47.788Z,934.45
2018-12-17T08:00:47.816Z,934.49
2018-12-17T08:01:47.751Z,934.47
2018-12-17T08:02:47.746Z,934.54
2018-12-17T08:03:47.764Z,934.57
2018-12-17T08:04:47.747Z,934.61
2018-12-17T08:05:47.744Z,934.65
2018-12-17T08:06:47.735Z,934.67
2018-12-17T08:07:47.742Z,934.63
2018-12-17T08:08:47.725Z,934.70
2018-12-17T08:09:47.732Z,934.68
2018-12-17T08:10:47.687Z,934.71
2018-12-17T08:11:47.696Z,934.76
2018-12-17T08:12:47.715Z,934.81
2018-12-17T08:13:47.698Z,934.86
2018-12-17T08:14:47.680Z,934.86
2018-12-17T08:15:47.696Z,934.88
2018-12-17T08:16:47.670Z,934.86
2018-12-17T08:17:47.673Z,934.82
2018-12-17T08:18:47.666Z,934.82
2018-12-17T08:19:47.661Z,934.79
2018-12-17T08:20:47.663Z,934.80
2018-12-17T08:21:47.634Z,934.79
2018-12-17T08:22:47.681Z,934.80
2018-12-17T08:23:47.639Z,934.84
2018-12-17T08:24:47.635Z,934.84
2018-12-17T08:25:47.615Z,934.82
2018-12-17T08:26:47.595Z,934.84
2018-12-17T08:27:47.618Z,934.85
2018-12-17T08:28:47.594Z,934.87
2018-12-17T08:29:47.590Z,934.93
2018-12-17T08:30:47.591Z,934.92
2018-12-17T08:31:47.578Z,934.96
2018-12-17T08:32:47.588Z,934.97
2018-12-17T08:33:47.566Z,935.07
2018-12-17T08:34:47.581Z,935.10
2018-12-17T08:35:47.570Z,935.07
2018-12-17T08:36:47.578Z,935.16
2018-12-17T08:37:47.540Z,935.13
2018-12-17T08:38:47.537Z,935.13
2018-12-17T08:39:47.550Z,935.17
2018-12-17T08:40:47.539Z,935.11
2018-12-17T08:41:47.532Z,935.12
2018-12-17T08:42:47.542Z,935.17
2018-12-17T08:43:47.537Z,935.12
2018-12-17T08:44:47.517Z,935.15
2018-12-17T08:45:47.514Z,935.13
2018-12-17T08:46:47.520Z,935.14
2018-12-17T08:47:47.499Z,935.15
2018-12-17T08:48:47.471Z,935.16
2018-12-17T08:49:47.521Z,935.14
2018-12-17T08:50:47.487Z,935.16
2018-12-17T08:51:47.487Z,935.19
2018-12-17T08:52:47.487Z,935.20
2018-12-17T08:53:47.464Z,935.16
2018-12-17T08:54:47.461Z,935.17
2018-12-17T08:55:47.469Z,935.25
2018-12-17T08:56:47.505Z,935.25
2018-12-17T08:57:47.443Z,935.25
2018-12-17T08:58:47.418Z,935.22
2018-12-17T08:59:47.414Z,935.22
2018-12-17T09:00:47.431Z,935.22
2018-12-17T09:01:47.439Z,935.20
2018-12-17T09:02:47.433Z,935.18
2018-12-17T09:03:47.650Z,935.21
2018-12-17T09:04:47.400Z,935.24
2018-12-17T09:05:47.420Z,935.27
2018-12-17T09:06:47.375Z,935.30
2018-12-17T09:07:47.416Z,935.37
2018-12-17T09:08:47.440Z,935.43
2018-12-17T09:09:47.396Z,935.44
2018-12-17T09:10:47.375Z,935.44
2018-12-17T09:11:47.382Z,935.43
2018-12-17T09:12:47.368Z,935.45
2018-12-17T09:13:47.362Z,935.47
2018-12-17T09:14:47.361Z,935.44
2018-12-17T09:15:47.351Z,935.46
2018-12-17T09:16:47.334Z,935.44
2018-12-17T09:17:47.346Z,935.46
2018-12-17T09:18:47.327Z,935.50
2018-12-17T09:19:47.314Z,935.44
2018-12-17T09:20:47.301Z,935.42
2018-12-17T09:21:47.328Z,935.48
2018-12-17T09:22:47.347Z,935.49
2018-12-17T09:23:47.313Z,935.46
2018-12-17T09:24:47.290Z,935.52
2018-12-17T09:25:47.299Z,935.52
2018-12-17T09:26:47.283Z,935.56
2018-12-17T09:27:47.336Z,935.57
2018-12-17T09:28:47.289Z,935.60
2018-12-17T09:29:47.325Z,935.60
2018-12-17T09:30:47.275Z,935.61
2018-12-17T09:31:47.299Z,935.60
2018-12-17T09:32:47.300Z,935.61
2018-12-17T09:33:47.270Z,935.62
2018-12-17T09:34:47.240Z,935.61
2018-12-17T09:35:47.255Z,935.61
2018-12-17T09:36:47.274Z,935.61
2018-12-17T09:37:47.237Z,935.64
2018-12-17T09:38:47.246Z,935.66
2018-12-17T09:39:47.226Z,935.67
2018-12-17T09:40:47.217Z,935.69
2018-12-17T09:41:47.218Z,935.69
2018-12-17T09:42:47.261Z,935.73
2018-12-17T09:43:47.194Z,935.72
2018-12-17T09:44:47.213Z,935.77
2018-12-17T09:45:47.246Z,935.79
2018-12-17T09:46:47.174Z,935.77
2018-12-17T09:47:47.195Z,935.81
2018-12-17T09:48:47.179Z,935.80
2018-12-17T09:49:47.172Z,935.82
2018-12-17T09:50:47.172Z,935.84
2018-12-17T09:51:47.152Z,935.83
2018-12-17T09:52:47.200Z,935.87
2018-12-17T09:53:47.153Z,935.88
2018-12-17T09:54:47.137Z,935.92
2018-12-17T09:55:47.161Z,935.93
2018-12-17T09:56:47.169Z,935.90
2018-12-17T09:57:47.130Z,935.93
2018-12-17T09:58:47.122Z,935.88
2018-12-17T09:59:47.136Z,935.89
2018-12-17T10:00:47.109Z,935.84
2018-12-17T10:01:47.111Z,935.83
2018-12-17T10:02:47.124Z,935.87
2018-12-17T10:03:47.096Z,935.90
2018-12-17T10:04:47.090Z,935.87
2018-12-17T10:05:47.080Z,935.88
2018-12-17T10:06:47.087Z,935.90
2018-12-17T10:07:47.104Z,935.88
2018-12-17T10:08:47.077Z,935.88
2018-12-17T10:09:47.119Z,935.88
2018-12-17T10:10:47.077Z,935.87
2018-12-17T10:11:47.099Z,935.86
2018-12-17T10:12:47.089Z,935.87
2018-12-17T10:13:47.061Z,935.87
2018-12-17T10:14:47.068Z,935.87
2018-12-17T10:15:47.035Z,935.85
2018-12-17T10:16:47.055Z,935.85
2018-12-17T10:17:47.037Z,935.85
2018-12-17T10:18:47.037Z,935.92
2018-12-17T10:19:47.034Z,935.89
2018-12-17T10:20:47.039Z,935.89
2018-12-17T10:21:47.023Z,935.87
2018-12-17T10:22:47.022Z,935.89
2018-12-17T10:23:47.015Z,935.86
2018-12-17T10:24:47.011Z,935.86
2018-12-17T10:25:46.988Z,935.87
2018-12-17T10:26:47.009Z,935.89
2018-12-17T10:27:46.997Z,935.86
2018-12-17T10:28:46.964Z,935.88
2018-12-17T10:29:46.990Z,935.85
2018-12-17T10:30:46.978Z,935.87
2018-12-17T10:31:46.979Z,935.85
2018-12-17T10:32:47.021Z,935.88
2018-12-17T10:33:47.028Z,935.86
2018-12-17T10:34:46.965Z,935.86
2018-12-17T10:35:47.018Z,935.85
2018-12-17T10:36:46.953Z,935.87
2018-12-17T10:37:46.936Z,935.90
2018-12-17T10:38:46.949Z,935.89
2018-12-17T10:39:46.926Z,935.87
2018-12-17T10:40:46.929Z,935.87
2018-12-17T10:41:46.924Z,935.88
2018-12-17T10:42:46.945Z,935.86
2018-12-17T10:43:46.927Z,935.88
2018-12-17T10:44:46.911Z,935.89
2018-12-17T10:45:46.911Z,935.90
2018-12-17T10:46:46.921Z,935.91
2018-12-17T10:47:46.917Z,935.95
2018-12-17T10:48:46.901Z,935.91
2018-12-17T10:49:47.130Z,935.89
2018-12-17T10:50:46.897Z,935.88
2018-12-17T10:51:46.887Z,935.84
2018-12-17T10:52:46.872Z,935.80
2018-12-17T10:53:46.895Z,935.80
2018-12-17T10:54:46.873Z,935.75
2018-12-17T10:55:46.875Z,935.77
2018-12-17T10:56:46.861Z,935.78
2018-12-17T10:57:46.882Z,935.77
2018-12-17T10:58:46.867Z,935.79
2018-12-17T10:59:46.851Z,935.80
2018-12-17T11:00:46.845Z,935.85
2018-12-17T11:01:46.833Z,935.83
2018-12-17T11:02:46.838Z,935.85
2018-12-17T11:03:46.848Z,935.83
2018-12-17T11:04:46.824Z,935.78
2018-12-17T11:05:46.838Z,935.79
2018-12-17T11:06:46.910Z,935.81
2018-12-17T11:07:46.805Z,935.78
2018-12-17T11:08:46.812Z,935.79
2018-12-17T11:09:46.832Z,935.74
2018-12-17T11:10:46.802Z,935.76
2018-12-17T11:11:46.843Z,935.82
2018-12-17T11:12:46.785Z,935.83
2018-12-17T11:13:46.789Z,935.84
2018-12-17T11:14:46.798Z,935.79
2018-12-17T11:15:46.793Z,935.81
2018-12-17T11:16:46.752Z,935.83
2018-12-17T11:17:46.758Z,935.78
2018-12-17T11:18:46.747Z,935.81
2018-12-17T11:19:46.771Z,935.82
2018-12-17T11:20:46.740Z,935.85
2018-12-17T11:21:46.738Z,935.80
2018-12-17T11:22:46.735Z,935.83
2018-12-17T11:23:46.755Z,935.86
2018-12-17T11:24:46.784Z,935.84
2018-12-17T11:25:46.743Z,935.86
2018-12-17T11:26:46.744Z,935.82
2018-12-17T11:27:46.739Z,935.85
2018-12-17T11:28:46.730Z,935.84
2018-12-17T11:29:48.591Z,935.88
2018-12-17T11:30:46.898Z,935.86
2018-12-17T11:31:46.753Z,935.86
2018-12-17T11:32:46.720Z,935.83
2018-12-17T11:33:46.721Z,935.85
2018-12-17T11:34:46.726Z,935.82
2018-12-17T11:35:46.712Z,935.84
2018-12-17T11:36:46.693Z,935.81
2018-12-17T11:37:46.684Z,935.82
2018-12-17T11:38:46.713Z,935.86
2018-12-17T11:39:46.733Z,935.85
2018-12-17T11:40:46.708Z,935.92
2018-12-17T11:41:46.694Z,935.87
2018-12-17T11:42:46.702Z,935.89
2018-12-17T11:43:46.700Z,935.92
2018-12-17T11:44:46.689Z,935.90
2018-12-17T11:45:46.697Z,935.96
2018-12-17T11:46:46.682Z,935.93
2018-12-17T11:47:46.705Z,935.95
2018-12-17T11:48:46.672Z,935.95
2018-12-17T11:49:46.650Z,935.95
2018-12-17T11:50:46.656Z,935.92
2018-12-17T11:51:46.673Z,935.91
2018-12-17T11:52:46.646Z,935.90
2018-12-17T11:53:46.658Z,935.89
2018-12-17T11:54:46.700Z,935.88
2018-12-17T11:55:46.649Z,935.89
2018-12-17T11:56:46.637Z,935.90
2018-12-17T11:57:48.324Z,935.86
2018-12-17T11:58:46.639Z,935.82
2018-12-17T11:59:46.638Z,935.81
2018-12-17T12:00:53.502Z,935.81
2018-12-17T12:01:46.623Z,935.83
2018-12-17T12:02:46.661Z,935.84
2018-12-17T12:03:46.648Z,935.82
2018-12-17T12:04:46.636Z,935.83
2018-12-17T12:05:46.653Z,935.84
2018-12-17T12:06:46.666Z,935.79
2018-12-17T12:07:46.639Z,935.82
2018-12-17T12:08:46.632Z,935.80
2018-12-17T12:09:46.629Z,935.81
2018-12-17T12:10:46.657Z,935.87
2018-12-17T12:11:46.655Z,935.79
2018-12-17T12:12:46.628Z,935.77
2018-12-17T12:13:46.627Z,935.76
2018-12-17T12:14:46.652Z,935.77
2018-12-17T12:15:46.652Z,935.84
2018-12-17T12:16:46.624Z,935.83
2018-12-17T12:17:46.627Z,935.83
2018-12-17T12:18:46.669Z,935.84
2018-12-17T12:19:46.626Z,935.83
2018-12-17T12:20:46.638Z,935.83
2018-12-17T12:21:46.661Z,935.80
2018-12-17T12:22:46.629Z,935.81
2018-12-17T12:23:46.643Z,935.81
2018-12-17T12:24:46.610Z,935.76
2018-12-17T12:25:46.602Z,935.73
2018-12-17T12:26:46.642Z,935.76
2018-12-17T12:27:46.627Z,935.71
2018-12-17T12:28:46.622Z,935.75
2018-12-17T12:29:46.635Z,935.78